Time;durP1;ratioP1;P1;durP2;ratioP2;P2;SDS_P1;SDS_P2;PMS_P1;PMS_P2;Temp;Humidity;BMP_temperature;BMP_pressure;BME280_temperature;BME280_humidity;BME280_pressure;Samples;Min_cycle;Max_cycle;Signal;HPM_P1;HPM_P2
2022/09/20 00:00:42;;;;;;;18.40;17.50;;;15.40;63.40;;;;;;5013317;28;20037;-77
2022/09/20 00:03:09;;;;;;;18.38;17.38;;;15.50;63.40;;;;;;5030054;28;20030;-77
2022/09/20 00:05:39;;;;;;;18.17;17.27;;;15.50;62.70;;;;;;4996759;28;20045;-77
2022/09/20 00:08:07;;;;;;;19.60;18.60;;;15.50;62.80;;;;;;4997609;28;20060;-77
2022/09/20 00:10:36;;;;;;;20.13;18.95;;;15.60;62.60;;;;;;5013807;28;20048;-77
2022/09/20 00:13:03;;;;;;;20.35;19.08;;;15.50;62.40;;;;;;5029679;28;20032;-77
2022/09/20 00:15:29;;;;;;;19.83;18.83;;;15.50;63.00;;;;;;5013205;28;20040;-77
2022/09/20 00:17:55;;;;;;;19.48;18.48;;;15.50;63.10;;;;;;4996897;28;20502;-77
2022/09/20 00:20:21;;;;;;;20.38;19.27;;;15.50;63.00;;;;;;5013527;28;20026;-77
2022/09/20 00:22:48;;;;;;;20.52;19.42;;;15.50;63.00;;;;;;4997421;28;20071;-77
2022/09/20 00:25:18;;;;;;;20.85;19.65;;;15.50;62.40;;;;;;5013183;28;20045;-77
2022/09/20 00:27:44;;;;;;;22.23;21.02;;;15.50;62.60;;;;;;5013127;28;20044;-77
2022/09/20 00:30:11;;;;;;;22.60;21.40;;;15.50;62.80;;;;;;5029283;28;20431;-77
2022/09/20 00:32:38;;;;;;;22.23;20.92;;;15.50;63.10;;;;;;5046048;28;20049;-77
2022/09/20 00:35:08;;;;;;;23.08;21.73;;;15.50;63.00;;;;;;5046205;28;20056;-77
2022/09/20 00:37:39;;;;;;;23.15;21.95;;;15.40;63.40;;;;;;5045897;28;20127;-77
2022/09/20 00:40:08;;;;;;;26.65;25.15;;;15.50;63.00;;;;;;5061718;28;20025;-77
2022/09/20 00:42:34;;;;;;;26.08;24.77;;;15.40;62.90;;;;;;5029445;28;20052;-77
2022/09/20 00:45:03;;;;;;;22.35;21.05;;;15.30;63.50;;;;;;5042760;28;20033;-77
2022/09/20 00:47:35;;;;;;;20.48;19.48;;;15.10;64.30;;;;;;5042232;28;20060;-77
2022/09/20 00:50:33;;;;;;;20.05;18.85;;;15.00;64.70;;;;;;5029736;28;20029;-77
2022/09/20 00:53:04;;;;;;;18.13;17.10;;;15.00;64.40;;;;;;5030816;28;20042;-77
2022/09/20 00:55:32;;;;;;;18.00;17.10;;;15.10;63.90;;;;;;5012966;28;20037;-77
2022/09/20 00:57:58;;;;;;;17.27;16.00;;;14.90;65.20;;;;;;5013393;28;20028;-77
2022/09/20 01:00:24;;;;;;;16.90;15.98;;;14.90;64.60;;;;;;5012871;28;20037;-77
2022/09/20 01:02:52;;;;;;;16.63;15.63;;;14.90;65.00;;;;;;4997058;28;20046;-77
2022/09/20 01:05:18;;;;;;;16.88;15.93;;;14.80;65.10;;;;;;5012963;28;20033;-77
2022/09/20 01:07:45;;;;;;;17.42;16.52;;;14.70;65.50;;;;;;5012138;28;20385;-77
2022/09/20 01:10:11;;;;;;;18.08;16.95;;;14.80;65.70;;;;;;5030259;28;20033;-77
2022/09/20 01:12:39;;;;;;;16.98;16.08;;;14.70;65.60;;;;;;5030587;28;20363;-77
2022/09/20 01:15:06;;;;;;;17.33;16.45;;;14.60;66.30;;;;;;5028103;28;20026;-77
2022/09/20 01:17:33;;;;;;;16.15;15.25;;;14.40;66.70;;;;;;5016224;28;20470;-77
2022/09/20 01:20:02;;;;;;;16.70;15.38;;;14.30;67.30;;;;;;5016565;28;20044;-77
2022/09/20 01:22:52;;;;;;;16.45;15.27;;;14.10;67.90;;;;;;5034637;28;20386;-77
2022/09/20 01:25:39;;;;;;;15.27;14.48;;;14.20;67.60;;;;;;5032724;28;20033;-77
2022/09/20 01:28:05;;;;;;;14.35;13.55;;;14.10;68.10;;;;;;5032706;28;20041;-77
2022/09/20 01:30:48;;;;;;;14.90;14.10;;;14.10;68.50;;;;;;5016045;28;20037;-77
2022/09/20 01:33:36;;;;;;;15.63;14.63;;;14.00;68.50;;;;;;5001608;28;20033;-77
2022/09/20 01:36:03;;;;;;;15.38;14.43;;;14.20;67.70;;;;;;5016489;28;20041;-77
2022/09/20 01:38:51;;;;;;;15.85;15.05;;;14.30;67.60;;;;;;5016458;28;20033;-77
2022/09/20 01:41:23;;;;;;;15.70;14.90;;;14.20;68.10;;;;;;5016790;28;20030;-77
2022/09/20 01:44:08;;;;;;;14.73;13.75;;;14.10;68.90;;;;;;5017813;28;20234;-77
2022/09/20 01:46:35;;;;;;;14.52;13.73;;;14.00;68.50;;;;;;5035227;28;20037;-77
2022/09/20 01:49:07;;;;;;;15.43;14.25;;;14.00;68.50;;;;;;5016984;28;20041;-77
2022/09/20 01:52:03;;;;;;;14.55;13.65;;;13.90;69.30;;;;;;5033985;28;20538;-77
2022/09/20 01:54:41;;;;;;;13.80;12.93;;;13.90;69.20;;;;;;5033191;28;20409;-77
2022/09/20 01:57:45;;;;;;;13.75;12.95;;;13.90;69.10;;;;;;5033706;28;20379;-77
2022/09/20 02:00:12;;;;;;;13.40;12.60;;;14.00;68.80;;;;;;5033187;28;20025;-77
2022/09/20 02:03:25;;;;;;;13.75;12.93;;;14.00;68.70;;;;;;5015753;28;20038;-77
2022/09/20 02:06:32;;;;;;;14.77;13.65;;;13.90;68.80;;;;;;5011024;28;20053;-77
2022/09/20 02:09:07;;;;;;;13.68;12.73;;;13.70;69.50;;;;;;4990328;28;20048;-77
2022/09/20 02:12:05;;;;;;;14.23;13.23;;;13.70;69.50;;;;;;5011350;28;20042;-77
2022/09/20 02:14:34;;;;;;;13.50;12.75;;;13.70;69.60;;;;;;4994692;28;20029;-77
2022/09/20 02:17:25;;;;;;;13.15;12.43;;;13.70;69.70;;;;;;4994498;28;20450;-77
2022/09/20 02:20:00;;;;;;;13.25;12.45;;;13.80;69.20;;;;;;4994833;28;20430;-77
2022/09/20 02:22:50;;;;;;;15.95;14.98;;;14.00;68.20;;;;;;5010744;28;20052;-78
2022/09/20 02:25:47;;;;;;;17.00;16.10;;;14.10;67.60;;;;;;4994692;28;20044;-77
2022/09/20 02:28:31;;;;;;;14.60;13.73;;;14.10;67.40;;;;;;4996001;28;20050;-77
2022/09/20 02:31:28;;;;;;;13.43;12.73;;;14.20;67.30;;;;;;5026890;28;20042;-77
2022/09/20 02:34:31;;;;;;;14.43;13.52;;;14.20;67.40;;;;;;4997175;28;20038;-77
2022/09/20 02:37:08;;;;;;;14.13;13.32;;;14.20;66.90;;;;;;5010398;28;20442;-77
2022/09/20 02:39:40;;;;;;;15.02;14.13;;;14.20;66.70;;;;;;5027158;28;20030;-77
2022/09/20 02:42:20;;;;;;;15.27;14.40;;;14.30;66.90;;;;;;5038635;28;20045;-77
2022/09/20 02:45:08;;;;;;;14.18;13.27;;;14.30;66.80;;;;;;5026077;28;20041;-77
2022/09/20 02:47:36;;;;;;;13.85;12.98;;;13.90;67.90;;;;;;5027092;28;20064;-77
2022/09/20 02:50:14;;;;;;;14.63;13.55;;;13.90;68.10;;;;;;4998914;28;20033;-77
2022/09/20 02:53:04;;;;;;;15.75;14.75;;;13.90;68.20;;;;;;5032187;28;20041;-77
2022/09/20 02:55:55;;;;;;;16.70;15.65;;;13.90;67.80;;;;;;5031219;28;20034;-77
2022/09/20 02:58:52;;;;;;;16.17;15.27;;;14.00;67.40;;;;;;5031366;28;20041;-77
2022/09/20 03:02:10;;;;;;;15.73;14.63;;;14.00;67.10;;;;;;5030712;28;20397;-77
2022/09/20 03:05:13;;;;;;;16.65;15.52;;;14.00;66.90;;;;;;5009310;28;20386;-77
2022/09/20 03:08:06;;;;;;;18.05;17.00;;;14.00;66.90;;;;;;5029461;28;20052;-77
2022/09/20 03:11:00;;;;;;;19.42;18.27;;;14.00;66.70;;;;;;5032301;28;20041;-77
2022/09/20 03:13:55;;;;;;;19.55;18.25;;;14.00;66.70;;;;;;5032192;28;20030;-77
2022/09/20 03:16:52;;;;;;;17.80;16.67;;;13.90;66.80;;;;;;5009503;28;20045;-77
2022/09/20 03:19:45;;;;;;;16.15;15.25;;;13.90;67.00;;;;;;4996252;28;20733;-77
2022/09/20 03:22:27;;;;;;;17.38;16.13;;;13.90;68.00;;;;;;5009555;28;20038;-77
2022/09/20 03:25:18;;;;;;;18.20;16.85;;;13.80;68.30;;;;;;5009991;28;20442;-77
2022/09/20 03:28:01;;;;;;;17.77;16.65;;;13.50;69.10;;;;;;4978616;28;20538;-77
2022/09/20 03:30:57;;;;;;;18.92;17.85;;;13.50;69.50;;;;;;4993436;28;20033;-77
2022/09/20 03:33:37;;;;;;;17.65;16.65;;;13.60;68.70;;;;;;5025964;28;20138;-77
2022/09/20 03:36:32;;;;;;;18.95;17.73;;;13.60;69.20;;;;;;5025597;28;20141;-77
2022/09/20 03:39:28;;;;;;;16.38;15.35;;;13.50;69.40;;;;;;5004240;28;20034;-77
2022/09/20 03:42:15;;;;;;;16.88;15.90;;;13.50;69.60;;;;;;5025759;28;20026;-77
2022/09/20 03:45:05;;;;;;;16.90;15.75;;;13.30;70.50;;;;;;5034025;28;20037;-77
2022/09/20 03:48:03;;;;;;;17.58;16.17;;;13.20;71.00;;;;;;5021772;28;20054;-77
2022/09/20 03:51:00;;;;;;;16.25;14.95;;;13.10;71.30;;;;;;4978386;28;20029;-77
2022/09/20 03:53:32;;;;;;;16.15;15.18;;;13.00;71.60;;;;;;5019628;28;20037;-77
2022/09/20 03:56:31;;;;;;;16.30;15.32;;;12.90;71.90;;;;;;5031416;28;20033;-77
2022/09/20 03:59:10;;;;;;;15.50;14.55;;;12.70;72.70;;;;;;5030363;28;20507;-77
2022/09/20 04:01:45;;;;;;;15.50;14.50;;;12.60;73.10;;;;;;5029847;28;20042;-77
2022/09/20 04:04:11;;;;;;;15.68;14.68;;;12.60;73.40;;;;;;5031082;28;20030;-78
2022/09/20 04:06:37;;;;;;;15.43;14.25;;;12.60;73.30;;;;;;5031229;28;20033;-77
2022/09/20 04:09:12;;;;;;;15.10;14.20;;;12.50;74.60;;;;;;5030142;28;20044;-77
2022/09/20 04:12:09;;;;;;;15.73;14.63;;;12.50;73.80;;;;;;5031319;28;20026;-77
2022/09/20 04:14:57;;;;;;;14.55;13.52;;;12.60;73.50;;;;;;5013337;28;20041;-77
2022/09/20 04:17:26;;;;;;;14.25;13.35;;;12.60;73.20;;;;;;5030731;28;20037;-77
2022/09/20 04:20:12;;;;;;;13.20;12.23;;;12.70;73.10;;;;;;5029589;28;20029;-77
2022/09/20 04:22:38;;;;;;;13.70;12.73;;;12.80;72.60;;;;;;5014589;28;20466;-77
2022/09/20 04:25:11;;;;;;;14.40;13.50;;;12.90;72.20;;;;;;4997247;28;20483;-77
2022/09/20 04:27:45;;;;;;;14.98;13.88;;;12.80;72.30;;;;;;5029838;28;20405;-77
2022/09/20 04:30:20;;;;;;;15.05;13.80;;;12.80;72.40;;;;;;5030804;28;20025;-77
2022/09/20 04:33:13;;;;;;;14.15;13.15;;;12.70;72.80;;;;;;5030903;28;20480;-77
2022/09/20 04:38:34;;;;;;;17.35;16.15;;;12.50;73.60;;;;;;4982473;28;20065;-77
2022/09/20 04:41:21;;;;;;;19.85;18.45;;;12.60;73.30;;;;;;4973568;28;20050;-77
2022/09/20 04:43:59;;;;;;;16.35;15.23;;;12.70;73.00;;;;;;4991580;28;20042;-77
2022/09/20 04:46:59;;;;;;;18.40;17.27;;;12.80;72.10;;;;;;5008291;28;20049;-77
2022/09/20 04:49:32;;;;;;;22.58;21.25;;;12.80;72.30;;;;;;4988966;28;20118;-77
2022/09/20 04:52:10;;;;;;;24.85;23.27;;;12.90;71.80;;;;;;4992423;28;20030;-77
2022/09/20 04:54:54;;;;;;;19.10;18.05;;;12.90;71.70;;;;;;4992820;28;20057;-77
2022/09/20 04:58:00;;;;;;;26.38;24.75;;;12.90;71.80;;;;;;4976155;28;20061;-77
2022/09/20 05:00:33;;;;;;;25.83;24.17;;;12.70;72.50;;;;;;4915131;29;20044;-77
2022/09/20 05:03:04;;;;;;;24.70;23.33;;;12.70;72.60;;;;;;4931582;29;20512;-77
2022/09/20 05:06:03;;;;;;;25.25;23.70;;;12.60;72.80;;;;;;4931674;29;20516;-77
2022/09/20 05:08:44;;;;;;;21.10;19.90;;;12.30;73.90;;;;;;4915779;29;20081;-77
2022/09/20 05:11:48;;;;;;;22.88;21.48;;;12.20;74.60;;;;;;4931668;29;20044;-76
2022/09/20 05:14:30;;;;;;;21.15;19.90;;;12.00;75.40;;;;;;4935149;28;20481;-77
2022/09/20 05:17:21;;;;;;;20.30;18.58;;;11.90;76.00;;;;;;4934017;28;20035;-77
2022/09/20 05:20:24;;;;;;;19.90;18.73;;;11.90;76.30;;;;;;4948710;29;20509;-77
2022/09/20 05:23:11;;;;;;;17.83;16.30;;;11.90;76.50;;;;;;4934500;29;20539;-76
2022/09/20 05:25:40;;;;;;;15.52;14.35;;;11.70;77.40;;;;;;4932556;29;20042;-77
2022/09/20 05:28:11;;;;;;;16.88;15.60;;;11.70;77.60;;;;;;4941146;28;20054;-77
2022/09/20 05:30:58;;;;;;;13.25;12.18;;;11.70;77.70;;;;;;4936975;28;20500;-77
2022/09/20 05:34:02;;;;;;;12.93;12.07;;;11.60;77.70;;;;;;4937375;29;20078;-77
2022/09/20 05:36:56;;;;;;;14.35;13.43;;;11.60;77.90;;;;;;4964488;28;20057;-77
2022/09/20 05:40:03;;;;;;;18.10;16.77;;;11.70;78.00;;;;;;5015079;28;20037;-77
2022/09/20 05:42:47;;;;;;;20.77;19.05;;;11.60;78.20;;;;;;4956474;28;20039;-77
2022/09/20 05:45:31;;;;;;;20.58;19.35;;;11.60;77.90;;;;;;4969519;28;20042;-76
2022/09/20 05:48:25;;;;;;;19.23;18.02;;;11.50;78.30;;;;;;4985456;28;20528;-77
2022/09/20 05:50:57;;;;;;;23.35;18.92;;;11.50;78.40;;;;;;4991988;28;20054;-77
2022/09/20 05:54:13;;;;;;;18.08;16.85;;;11.50;78.10;;;;;;4975666;28;20049;-77
2022/09/20 05:57:09;;;;;;;17.17;15.75;;;11.50;78.60;;;;;;4914759;29;20071;-77
2022/09/20 05:59:54;;;;;;;15.77;14.70;;;11.50;78.60;;;;;;4915204;29;20036;-77
2022/09/20 06:02:53;;;;;;;14.70;13.75;;;11.60;78.20;;;;;;4913032;29;20183;-77
2022/09/20 06:05:56;;;;;;;16.40;15.40;;;11.70;77.80;;;;;;4901861;29;20051;-77
2022/09/20 06:08:35;;;;;;;15.88;14.90;;;11.60;77.90;;;;;;4913656;28;20065;-77
2022/09/20 06:11:34;;;;;;;17.33;15.75;;;11.50;78.20;;;;;;4860775;29;20052;-76
2022/09/20 06:14:21;;;;;;;18.17;16.38;;;11.60;77.90;;;;;;4872807;29;20048;-76
2022/09/20 06:17:04;;;;;;;18.92;17.88;;;11.70;77.30;;;;;;4857915;29;20064;-76
2022/09/20 06:19:45;;;;;;;20.40;19.08;;;11.60;77.30;;;;;;4968251;28;20186;-76
2022/09/20 06:22:11;;;;;;;;;;;11.70;77.40;;;;;;4937112;29;20043;-76
2022/09/20 06:24:48;;;;;;;21.80;20.40;;;11.70;77.20;;;;;;4952906;29;20439;-77
2022/09/20 06:27:20;;;;;;;23.60;22.30;;;11.80;77.10;;;;;;4967019;28;20418;-76
2022/09/20 06:29:51;;;;;;;23.17;21.67;;;11.80;76.70;;;;;;4995921;28;20037;-77
2022/09/20 06:32:17;;;;;;;21.88;20.58;;;11.80;77.10;;;;;;5009529;28;20034;-77
2022/09/20 06:34:43;;;;;;;19.77;18.58;;;12.00;76.90;;;;;;4995747;28;20042;-77
2022/09/20 06:42:53;;;;;;;22.20;20.70;;;12.70;75.20;;;;;;5013750;28;20033;-77
2022/09/20 06:45:19;;;;;;;18.55;17.35;;;12.90;73.30;;;;;;5041007;28;20029;-77
2022/09/20 06:47:45;;;;;;;20.73;19.52;;;13.10;73.00;;;;;;5043002;28;20513;-77
2022/09/20 06:50:15;;;;;;;22.10;20.10;;;13.50;72.00;;;;;;5032621;28;20033;-77
2022/09/20 06:52:43;;;;;;;20.10;18.90;;;13.60;70.90;;;;;;5031463;28;20033;-77
2022/09/20 06:55:20;;;;;;;21.95;20.48;;;13.70;69.30;;;;;;5015186;28;20021;-77
2022/09/20 06:57:46;;;;;;;20.75;19.48;;;13.90;71.20;;;;;;5015776;28;20038;-77
2022/09/20 07:00:14;;;;;;;21.48;20.17;;;14.10;68.70;;;;;;5014103;28;20375;-77
2022/09/20 07:02:42;;;;;;;19.52;18.42;;;14.10;69.10;;;;;;4998886;28;20493;-77
2022/09/20 07:05:20;;;;;;;19.27;17.90;;;14.20;67.60;;;;;;5014717;28;20042;-77
2022/09/20 07:07:46;;;;;;;19.50;18.20;;;14.20;67.40;;;;;;5015196;28;20033;-77
2022/09/20 07:10:13;;;;;;;20.40;19.05;;;14.10;67.50;;;;;;5014677;28;20386;-77
2022/09/20 07:12:40;;;;;;;20.40;18.90;;;14.10;67.90;;;;;;5014527;28;20040;-77
2022/09/20 07:15:07;;;;;;;21.25;19.88;;;14.20;67.60;;;;;;5030279;28;20017;-77
2022/09/20 07:17:33;;;;;;;20.48;19.02;;;14.40;66.90;;;;;;5014793;28;20074;-76
2022/09/20 07:19:59;;;;;;;21.30;19.83;;;14.50;66.30;;;;;;5014579;28;20029;-77
2022/09/20 07:22:26;;;;;;;23.20;22.00;;;14.60;66.40;;;;;;5030852;28;20021;-77
2022/09/20 07:24:52;;;;;;;18.40;17.10;;;14.80;66.00;;;;;;5014764;28;20569;-77
2022/09/20 07:27:19;;;;;;;18.50;17.20;;;14.80;65.30;;;;;;5030240;28;20041;-77
2022/09/20 07:29:46;;;;;;;25.25;22.85;;;14.80;65.30;;;;;;5030621;28;20037;-77
2022/09/20 07:32:12;;;;;;;30.65;28.75;;;15.00;65.50;;;;;;5062909;28;20030;-77
2022/09/20 07:34:39;;;;;;;23.73;22.13;;;15.20;63.30;;;;;;5031838;28;20029;-77
2022/09/20 07:37:05;;;;;;;18.58;16.95;;;15.40;63.70;;;;;;5032042;28;20041;-77
2022/09/20 07:39:31;;;;;;;22.40;21.05;;;15.40;63.00;;;;;;5047174;28;20041;-77
2022/09/20 07:41:57;;;;;;;21.38;19.80;;;15.50;63.00;;;;;;5046573;28;20060;-77
2022/09/20 07:44:23;;;;;;;22.83;20.90;;;15.70;61.40;;;;;;5037311;28;20025;-77
2022/09/20 07:46:58;;;;;;;23.90;22.15;;;15.80;61.20;;;;;;5032477;28;20037;-77
2022/09/20 07:49:25;;;;;;;22.58;20.38;;;15.90;62.00;;;;;;4998235;28;20041;-78
2022/09/20 07:51:52;;;;;;;21.30;19.35;;;15.80;60.90;;;;;;4997904;28;20042;-77
2022/09/20 07:54:18;;;;;;;20.55;19.30;;;15.80;60.90;;;;;;4998130;28;20034;-77
2022/09/20 07:56:45;;;;;;;19.00;17.67;;;15.80;60.60;;;;;;4997351;28;20038;-77
2022/09/20 07:59:12;;;;;;;20.05;18.70;;;15.70;60.70;;;;;;4997590;28;20060;-78
2022/09/20 08:01:38;;;;;;;18.77;17.38;;;15.70;60.60;;;;;;5013424;28;20491;-77
2022/09/20 08:04:05;;;;;;;18.65;17.27;;;15.80;60.30;;;;;;5030170;28;20033;-77
2022/09/20 08:06:31;;;;;;;19.60;18.40;;;15.80;60.30;;;;;;5013846;28;20032;-77
2022/09/20 08:08:57;;;;;;;19.48;18.25;;;15.80;60.30;;;;;;5013873;28;20041;-77
2022/09/20 08:11:24;;;;;;;20.35;19.17;;;15.80;60.60;;;;;;5013054;28;20041;-77
2022/09/20 08:13:51;;;;;;;20.52;19.05;;;15.90;60.20;;;;;;5013445;28;20498;-77
2022/09/20 08:16:18;;;;;;;19.60;18.38;;;16.10;59.70;;;;;;5013160;28;20030;-77
2022/09/20 08:18:48;;;;;;;20.13;18.42;;;16.10;59.70;;;;;;4997450;28;20029;-77
2022/09/20 08:21:14;;;;;;;19.92;18.45;;;16.20;59.80;;;;;;5013228;28;20044;-77
2022/09/20 08:23:42;;;;;;;20.40;19.13;;;16.50;58.60;;;;;;5013546;28;20029;-77
2022/09/20 08:26:13;;;;;;;18.92;17.75;;;16.70;58.40;;;;;;4996236;28;20060;-77
2022/09/20 08:28:40;;;;;;;20.95;19.70;;;16.80;58.20;;;;;;5029540;28;20040;-77
2022/09/20 08:31:11;;;;;;;20.05;18.48;;;16.80;57.20;;;;;;5029497;28;20521;-77
2022/09/20 08:33:38;;;;;;;19.50;18.42;;;17.00;57.10;;;;;;5046406;28;20041;-77
2022/09/20 08:36:05;;;;;;;19.75;18.60;;;17.00;56.60;;;;;;5046334;28;20029;-77
2022/09/20 08:38:31;;;;;;;19.77;18.50;;;17.10;56.70;;;;;;5062900;28;20490;-77
2022/09/20 08:41:04;;;;;;;20.30;19.20;;;17.30;55.90;;;;;;5046150;28;20480;-77
2022/09/20 08:43:39;;;;;;;19.35;17.88;;;17.10;55.80;;;;;;5031414;28;20355;-77
2022/09/20 08:46:05;;;;;;;18.80;17.45;;;17.10;55.60;;;;;;5031225;28;20469;-77
2022/09/20 08:48:32;;;;;;;18.25;16.92;;;17.20;55.90;;;;;;5018268;28;20053;-77
2022/09/20 08:51:02;;;;;;;18.17;17.08;;;17.30;55.20;;;;;;5029790;28;20402;-77
2022/09/20 08:53:28;;;;;;;18.20;17.10;;;17.40;55.00;;;;;;4997258;28;20499;-77
2022/09/20 08:55:58;;;;;;;18.77;17.58;;;17.40;54.80;;;;;;4996580;28;20060;-77
2022/09/20 08:58:27;;;;;;;19.55;18.10;;;17.50;54.10;;;;;;5013568;28;20029;-77
2022/09/20 09:00:55;;;;;;;19.60;18.17;;;17.60;54.30;;;;;;5029214;28;20545;-78
2022/09/20 09:03:21;;;;;;;19.00;18.00;;;17.70;53.70;;;;;;5013455;28;20037;-77
2022/09/20 09:05:51;;;;;;;18.50;17.38;;;17.70;52.70;;;;;;5013370;28;20386;-77
2022/09/20 09:08:28;;;;;;;19.13;17.88;;;17.70;53.20;;;;;;5013132;28;20049;-77
2022/09/20 09:10:55;;;;;;;19.85;18.63;;;17.80;52.10;;;;;;4997591;28;20025;-77
2022/09/20 09:13:42;;;;;;;19.33;18.10;;;17.80;52.30;;;;;;5012432;28;20044;-78
2022/09/20 09:16:11;;;;;;;20.00;18.77;;;17.90;52.20;;;;;;5030087;28;20499;-77
2022/09/20 09:18:44;;;;;;;22.08;20.75;;;18.10;51.10;;;;;;4997077;28;20041;-78
2022/09/20 09:21:24;;;;;;;20.98;19.88;;;18.30;50.70;;;;;;5013097;28;20030;-77
2022/09/20 09:24:02;;;;;;;22.15;20.85;;;18.40;50.00;;;;;;5013216;28;20052;-77
2022/09/20 09:26:34;;;;;;;22.00;20.77;;;18.40;49.80;;;;;;5014310;28;20033;-77
2022/09/20 09:29:16;;;;;;;21.98;20.50;;;18.40;49.50;;;;;;5013444;28;20045;-77
2022/09/20 09:31:44;;;;;;;21.67;20.48;;;18.40;49.70;;;;;;5028828;28;20040;-77
2022/09/20 09:34:39;;;;;;;20.42;19.08;;;18.50;49.50;;;;;;5045664;28;20021;-77
2022/09/20 09:37:07;;;;;;;42.47;39.83;;;18.60;50.30;;;;;;5030561;28;20037;-77
2022/09/20 09:39:34;;;;;;;21.70;20.58;;;18.60;48.60;;;;;;5032229;28;20045;-78
2022/09/20 09:42:02;;;;;;;22.45;21.10;;;18.70;48.80;;;;;;5049063;28;20025;-77
2022/09/20 09:44:31;;;;;;;24.63;23.27;;;18.80;48.40;;;;;;5040959;28;20033;-77
2022/09/20 09:46:57;;;;;;;24.98;23.77;;;18.80;47.90;;;;;;5050210;28;20037;-77
2022/09/20 09:49:34;;;;;;;25.25;23.73;;;18.80;47.40;;;;;;5033737;28;20494;-78
2022/09/20 09:52:13;;;;;;;24.30;22.63;;;18.90;47.50;;;;;;5017115;28;20033;-78
2022/09/20 09:54:41;;;;;;;25.10;23.63;;;18.90;47.30;;;;;;5016173;28;20041;-77
2022/09/20 09:57:18;;;;;;;24.98;23.60;;;18.80;47.00;;;;;;5015795;28;20037;-77
2022/09/20 10:00:12;;;;;;;27.33;25.83;;;18.90;46.90;;;;;;5032394;28;20437;-78
2022/09/20 10:03:02;;;;;;;27.00;25.50;;;19.10;46.20;;;;;;5017766;28;20025;-77
2022/09/20 10:05:43;;;;;;;27.23;25.73;;;19.20;46.20;;;;;;5032418;28;20038;-78
2022/09/20 10:08:16;;;;;;;26.92;25.27;;;19.20;45.90;;;;;;5000598;28;20442;-78
2022/09/20 10:11:21;;;;;;;24.73;23.33;;;19.40;46.60;;;;;;5032322;28;20034;-78
2022/09/20 10:14:02;;;;;;;26.02;24.63;;;19.50;45.30;;;;;;5032494;28;20029;-78
2022/09/20 10:17:03;;;;;;;29.73;28.00;;;19.40;45.30;;;;;;5030518;28;20044;-77
2022/09/20 10:19:32;;;;;;;24.25;22.90;;;19.40;44.80;;;;;;5032094;28;20029;-77
2022/09/20 10:22:04;;;;;;;26.20;24.70;;;19.20;44.70;;;;;;5031759;28;20394;-78
2022/09/20 10:24:48;;;;;;;25.85;24.35;;;19.30;45.00;;;;;;5032014;28;20041;-77
2022/09/20 10:27:20;;;;;;;25.88;24.40;;;19.50;44.30;;;;;;5032965;28;20029;-78
2022/09/20 10:30:25;;;;;;;24.98;23.75;;;19.60;43.80;;;;;;5033259;28;20049;-78
2022/09/20 10:32:58;;;;;;;24.73;23.02;;;19.60;43.40;;;;;;4996460;28;20496;-78
2022/09/20 10:35:34;;;;;;;28.20;26.60;;;19.70;43.10;;;;;;5030339;28;20483;-77
2022/09/20 10:38:18;;;;;;;24.95;23.60;;;19.60;43.20;;;;;;5012379;28;20064;-77
2022/09/20 10:43:59;;;;;;;26.25;24.65;;;19.70;43.40;;;;;;5007811;28;20032;-78
2022/09/20 10:47:02;;;;;;;25.58;23.98;;;19.90;43.10;;;;;;5048826;28;20398;-77
2022/09/20 10:49:45;;;;;;;25.60;24.20;;;19.90;42.20;;;;;;5009829;28;20060;-78
2022/09/20 10:52:38;;;;;;;27.48;25.88;;;19.80;42.60;;;;;;4993928;28;20399;-77
2022/09/20 10:55:17;;;;;;;24.13;22.63;;;19.70;42.80;;;;;;5010558;28;20034;-78
2022/09/20 10:57:49;;;;;;;24.08;22.88;;;19.50;42.90;;;;;;5010528;28;20025;-78
2022/09/20 11:00:39;;;;;;;28.00;26.40;;;19.70;43.10;;;;;;5009567;28;20078;-78
2022/09/20 11:03:24;;;;;;;25.02;23.40;;;19.90;42.70;;;;;;4994031;28;20045;-78
2022/09/20 11:06:08;;;;;;;28.00;26.60;;;20.00;42.50;;;;;;5009707;28;20037;-78
2022/09/20 11:08:35;;;;;;;26.15;24.63;;;20.00;42.20;;;;;;5011538;28;20156;-78
2022/09/20 11:11:09;;;;;;;26.30;24.83;;;20.10;41.80;;;;;;5027623;28;20022;-78
2022/09/20 11:13:39;;;;;;;26.67;25.35;;;20.20;41.90;;;;;;5027407;28;20045;-77
2022/09/20 11:16:15;;;;;;;25.85;24.55;;;20.10;41.80;;;;;;5027351;28;20033;-77
2022/09/20 11:18:59;;;;;;;28.98;27.48;;;20.20;42.60;;;;;;5010282;28;20055;-78
2022/09/20 11:21:45;;;;;;;28.05;26.30;;;20.30;41.80;;;;;;5009708;28;20042;-78
2022/09/20 11:24:31;;;;;;;25.45;24.15;;;20.30;42.60;;;;;;5027645;28;20029;-78
2022/09/20 11:27:03;;;;;;;29.48;27.98;;;20.40;41.10;;;;;;5027383;28;20098;-77
2022/09/20 11:29:50;;;;;;;28.25;26.77;;;20.50;41.30;;;;;;5030514;28;20041;-78
2022/09/20 11:32:21;;;;;;;26.25;24.65;;;20.60;42.20;;;;;;5015323;28;20033;-78
2022/09/20 11:35:02;;;;;;;27.27;25.77;;;20.70;40.70;;;;;;4998307;28;20041;-78
2022/09/20 11:37:39;;;;;;;29.23;27.73;;;20.70;40.50;;;;;;5015336;28;20033;-77
2022/09/20 11:40:25;;;;;;;33.90;32.17;;;20.70;40.70;;;;;;4998195;28;20038;-78
2022/09/20 11:42:51;;;;;;;27.45;26.05;;;20.70;41.20;;;;;;5030426;28;20029;-78
2022/09/20 11:45:19;;;;;;;27.98;26.33;;;20.80;40.80;;;;;;5044059;28;20025;-78
2022/09/20 11:47:58;;;;;;;28.15;26.55;;;20.80;40.80;;;;;;5041942;28;20042;-78
2022/09/20 11:50:50;;;;;;;26.30;24.90;;;20.80;41.00;;;;;;5015416;28;20034;-78
2022/09/20 11:53:36;;;;;;;27.25;25.85;;;20.80;40.80;;;;;;4999043;28;20044;-78
2022/09/20 11:56:26;;;;;;;29.17;27.40;;;20.70;41.00;;;;;;5031440;28;20036;-78
2022/09/20 11:58:54;;;;;;;28.38;27.05;;;20.80;40.70;;;;;;5013814;28;20368;-77
2022/09/20 12:01:24;;;;;;;25.88;24.48;;;20.70;41.00;;;;;;5013349;28;20033;-78
2022/09/20 12:03:51;;;;;;;28.48;26.88;;;20.70;41.00;;;;;;5029759;28;20499;-78
2022/09/20 12:06:35;;;;;;;27.02;25.63;;;20.70;40.70;;;;;;5014026;28;20486;-78
2022/09/20 12:09:03;;;;;;;29.98;28.58;;;20.80;40.80;;;;;;5014994;28;20037;-78
2022/09/20 12:11:34;;;;;;;26.27;24.95;;;20.80;40.80;;;;;;5013726;28;20029;-78
2022/09/20 12:14:03;;;;;;;26.60;25.00;;;20.70;41.00;;;;;;4997889;28;20402;-78
2022/09/20 12:16:43;;;;;;;27.08;25.63;;;20.60;41.60;;;;;;5012204;28;20530;-77
2022/09/20 12:19:11;;;;;;;28.45;26.83;;;20.70;41.20;;;;;;4997019;28;20045;-78
2022/09/20 12:21:58;;;;;;;27.05;25.55;;;20.90;41.40;;;;;;5013701;28;20399;-77
2022/09/20 12:24:32;;;;;;;30.17;28.73;;;21.10;40.90;;;;;;5031081;28;20029;-77
2022/09/20 12:27:42;;;;;;;30.88;29.38;;;21.00;40.20;;;;;;5014494;28;20462;-77
2022/09/20 12:30:16;;;;;;;27.00;25.40;;;20.80;40.50;;;;;;4993216;28;20057;-78
2022/09/20 12:32:56;;;;;;;27.30;25.90;;;20.90;41.10;;;;;;5009819;28;20034;-78
2022/09/20 12:35:58;;;;;;;30.80;29.23;;;21.10;40.70;;;;;;5026259;28;20034;-77
2022/09/20 12:38:24;;;;;;;27.08;25.67;;;21.20;40.20;;;;;;5008810;28;20049;-78
2022/09/20 12:41:00;;;;;;;28.67;26.80;;;21.20;40.20;;;;;;5015633;28;20046;-78
2022/09/20 12:43:27;;;;;;;27.85;26.30;;;21.10;40.60;;;;;;5011454;28;20049;-78
2022/09/20 12:45:54;;;;;;;28.80;27.30;;;21.20;40.50;;;;;;4994186;28;20033;-77
2022/09/20 12:48:20;;;;;;;28.13;26.63;;;21.20;40.80;;;;;;4995667;28;20053;-78
2022/09/20 12:54:07;;;;;;;27.63;26.23;;;21.50;40.40;;;;;;5016934;28;20133;-78
2022/09/20 12:56:38;;;;;;;28.27;26.77;;;21.50;39.90;;;;;;4995798;28;20490;-78
2022/09/20 12:59:06;;;;;;;29.15;27.75;;;21.60;40.30;;;;;;4996077;28;20371;-78
2022/09/20 13:01:35;;;;;;;29.38;27.73;;;21.60;39.60;;;;;;4983049;28;20041;-78
2022/09/20 13:04:39;;;;;;;30.40;28.90;;;21.60;40.10;;;;;;4976312;28;21038;-78
2022/09/20 13:07:32;;;;;;;27.75;26.27;;;21.60;40.00;;;;;;5008261;28;20038;-78
2022/09/20 13:10:05;;;;;;;29.58;27.85;;;21.50;40.00;;;;;;4987356;28;20054;-77
2022/09/20 13:12:34;;;;;;;28.00;26.60;;;21.40;40.10;;;;;;4987122;28;20201;-77
2022/09/20 13:15:01;;;;;;;27.98;26.58;;;21.30;40.30;;;;;;5012484;28;20041;-78
2022/09/20 13:17:30;;;;;;;28.55;27.02;;;21.40;40.60;;;;;;5032786;28;20029;-77
2022/09/20 13:19:56;;;;;;;29.85;27.95;;;21.40;40.30;;;;;;5016840;28;20028;-77
2022/09/20 13:22:31;;;;;;;30.58;28.98;;;21.20;41.10;;;;;;5016700;28;20029;-77
2022/09/20 13:25:03;;;;;;;33.72;31.95;;;21.30;40.20;;;;;;5017484;28;20390;-77
2022/09/20 13:27:38;;;;;;;27.15;25.75;;;21.40;40.10;;;;;;5016941;28;20041;-77
2022/09/20 13:30:24;;;;;;;27.50;25.90;;;21.40;40.60;;;;;;5047560;28;20382;-78
2022/09/20 13:32:50;;;;;;;30.20;28.50;;;21.60;40.50;;;;;;5013416;28;20038;-77
2022/09/20 13:35:23;;;;;;;28.65;27.17;;;21.80;40.20;;;;;;4997233;28;20034;-78